»·PEaware :: N41585 KRKS-KPUC

N41585 :: KRKS-KPUC

FLIGHT INFORMATION

Flight Status: Arrived
Operator: Privately registered:
United States
More flights under this callsign
Pilot: Sonny B. (6473)
Aircraft: PIPER PA-28R-201 ARROW
(P28R)
More flights by this aircraft type
Origin: KRKS Rock Springs-Sweetwater
United States
Destination: KPUC Carbon Co
United States
More flights between these airports :: More routes between these airports
Route: OCS V391 VEL V208 PUC
File this flight plan on PilotEdge
Remarks:
Altitude:
(Current/Filed)
12,000ft
Speed:
(Current/Filed)
150kts
Departed: 18-Sep-17 07:11 PM
Arrived: 18-Sep-17 08:30 PM
Distance/Time
Traveled:
141nm/1:18
Distance/Time
To Go:
Arrived

Flight Plot

Page will automatically refresh every two minutes.

Flight plan parsing failed; only flown route is shown


Map Options




Map Legend


Flown Route
Filed Route
Departure Airport
Arrival Airport
Navaid (VOR, NDB)
Fix

Horizontal Profiles

Position Reports

Time Latitude Longitude Heading Altitude Ground
Speed
18-Sep-17 18:59 41.599007 -109.063756 313 6761ft 0kts
18-Sep-17 19:00 41.599007 -109.063756 313 6761ft 0kts
18-Sep-17 19:01 41.599007 -109.063756 313 6761ft 0kts
18-Sep-17 19:02 41.599007 -109.063756 313 6761ft 0kts
18-Sep-17 19:03 41.599007 -109.063756 313 6761ft 0kts
18-Sep-17 19:04 41.599007 -109.063756 313 6761ft 0kts
18-Sep-17 19:05 41.599007 -109.063756 313 6761ft 0kts
18-Sep-17 19:06 41.599007 -109.063756 313 6761ft 0kts
18-Sep-17 19:07 41.599007 -109.063756 313 6761ft 0kts
18-Sep-17 19:08 41.599007 -109.063756 313 6761ft 0kts
18-Sep-17 19:09 41.599007 -109.063756 313 6761ft 0kts
18-Sep-17 19:10 41.599007 -109.063756 313 6761ft 0kts
18-Sep-17 19:11 41.599334 -109.062989 108 6761ft 6kts
18-Sep-17 19:12 41.598934 -109.061190 104 6761ft 0kts
18-Sep-17 19:13 41.598934 -109.061190 104 6761ft 0kts
18-Sep-17 19:14 41.598747 -109.060307 109 6761ft 0kts
18-Sep-17 19:15 41.589181 -109.072862 225 6911ft 97kts
18-Sep-17 19:16 41.570207 -109.097769 224 7863ft 98kts
18-Sep-17 19:17 41.559042 -109.127073 313 8717ft 103kts
18-Sep-17 19:18 41.573892 -109.106602 81 9583ft 102kts
18-Sep-17 19:19 41.578671 -109.069767 87 10408ft 103kts
18-Sep-17 19:20 41.586717 -109.033673 68 11209ft 102kts
18-Sep-17 19:21 41.599955 -108.999591 54 11956ft 104kts
18-Sep-17 19:22 41.606100 -108.958251 142 11998ft 149kts
18-Sep-17 19:23 41.587833 -108.990799 286 12002ft 160kts
18-Sep-17 19:24 41.567731 -109.030948 193 12000ft 162kts
18-Sep-17 19:25 41.523847 -109.045136 193 12000ft 163kts
18-Sep-17 19:26 41.480405 -109.062567 197 12000ft 163kts
18-Sep-17 19:27 41.437202 -109.080711 197 12000ft 163kts
18-Sep-17 19:28 41.393902 -109.098894 197 12000ft 163kts
18-Sep-17 19:29 41.350596 -109.117070 197 12000ft 163kts
18-Sep-17 19:30 41.307185 -109.135273 197 12000ft 163kts
18-Sep-17 19:31 41.263852 -109.153421 197 12000ft 163kts
18-Sep-17 19:32 41.220442 -109.171015 196 12000ft 163kts
18-Sep-17 19:33 41.177174 -109.187957 196 12000ft 163kts
18-Sep-17 19:34 41.133604 -109.205019 196 12000ft 163kts
18-Sep-17 19:35 41.090067 -109.222060 196 12000ft 164kts
18-Sep-17 19:36 41.046456 -109.239113 196 12000ft 164kts
18-Sep-17 19:37 41.002564 -109.256264 196 12000ft 164kts
18-Sep-17 19:38 40.958851 -109.273334 196 12000ft 164kts
18-Sep-17 19:39 40.915191 -109.290367 196 12000ft 164kts
18-Sep-17 19:40 40.878720 -109.304589 196 12000ft 164kts
18-Sep-17 19:41 40.834954 -109.321649 196 12000ft 164kts
18-Sep-17 19:42 40.791120 -109.338726 196 12000ft 164kts
18-Sep-17 19:43 40.740102 -109.358592 196 12000ft 164kts
18-Sep-17 19:44 40.703658 -109.372777 196 12000ft 164kts
18-Sep-17 19:45 40.659947 -109.389786 196 12000ft 164kts
18-Sep-17 19:46 40.616077 -109.406844 196 12000ft 164kts
18-Sep-17 19:47 40.572434 -109.423812 196 12000ft 164kts
18-Sep-17 19:48 40.528600 -109.440843 196 12000ft 164kts
18-Sep-17 19:49 40.484918 -109.457792 196 12000ft 164kts
18-Sep-17 19:50 40.441189 -109.474749 196 12000ft 164kts
18-Sep-17 19:51 40.397367 -109.491764 196 12000ft 164kts
18-Sep-17 19:52 40.370213 -109.534926 243 12000ft 164kts
18-Sep-17 19:53 40.349624 -109.588217 243 12000ft 164kts
18-Sep-17 19:54 40.328589 -109.641294 242 12000ft 164kts
18-Sep-17 19:55 40.309293 -109.689168 243 12000ft 164kts
18-Sep-17 19:56 40.288759 -109.742452 243 12000ft 164kts
18-Sep-17 19:57 40.268750 -109.796336 244 12000ft 164kts
18-Sep-17 19:58 40.248998 -109.850103 244 12000ft 164kts
18-Sep-17 19:59 40.229206 -109.904025 244 12000ft 164kts
18-Sep-17 20:00 40.209481 -109.957798 244 12000ft 164kts
18-Sep-17 20:01 40.189688 -110.011789 244 12000ft 164kts
18-Sep-17 20:02 40.170016 -110.065484 244 12000ft 164kts
18-Sep-17 20:03 40.150253 -110.119387 243 11999ft 164kts
18-Sep-17 20:04 40.118302 -110.161615 224 12000ft 164kts
18-Sep-17 20:05 40.084771 -110.202166 221 12000ft 164kts
18-Sep-17 20:06 40.050801 -110.242158 222 12000ft 164kts
18-Sep-17 20:07 40.016897 -110.282065 222 12000ft 164kts
18-Sep-17 20:08 39.983038 -110.321920 222 12000ft 164kts
18-Sep-17 20:09 39.949144 -110.361829 222 12000ft 164kts
18-Sep-17 20:10 39.915246 -110.401755 222 12000ft 164kts
18-Sep-17 20:11 39.880999 -110.441000 221 12000ft 164kts
18-Sep-17 20:12 39.846436 -110.479836 220 12000ft 164kts
18-Sep-17 20:13 39.811769 -110.518478 220 12000ft 164kts
18-Sep-17 20:14 39.777107 -110.557128 220 12000ft 164kts
18-Sep-17 20:15 39.742437 -110.595780 220 12000ft 164kts
18-Sep-17 20:16 39.708084 -110.634746 221 12000ft 164kts
18-Sep-17 20:17 39.673674 -110.673823 221 12000ft 164kts
18-Sep-17 20:18 39.639327 -110.712757 220 12000ft 164kts
18-Sep-17 20:19 39.604306 -110.750784 205 11985ft 165kts
18-Sep-17 20:20 39.562110 -110.771583 200 11690ft 160kts
18-Sep-17 20:21 39.520469 -110.790749 198 11047ft 159kts
18-Sep-17 20:22 39.478588 -110.808522 198 10414ft 157kts
18-Sep-17 20:23 39.437777 -110.827181 202 9809ft 156kts
18-Sep-17 20:24 39.396872 -110.844748 196 9234ft 154kts
18-Sep-17 20:25 39.357531 -110.859579 181 8904ft 147kts
18-Sep-17 20:26 39.349066 -110.824817 14 8852ft 148kts
18-Sep-17 20:27 39.389128 -110.837304 344 8899ft 151kts
18-Sep-17 20:28 39.429895 -110.831954 15 8900ft 150kts
18-Sep-17 20:29 39.467721 -110.813041 23 8400ft 146kts
18-Sep-17 20:30 39.506051 -110.797108 13 7802ft 144kts
18-Sep-17 20:31 39.542116 -110.783082 20 7055ft 127kts
18-Sep-17 20:32 39.574124 -110.768851 18 6379ft 121kts
18-Sep-17 20:33 39.602060 -110.756474 18 6057ft 87kts
18-Sep-17 20:34 39.615134 -110.749885 141 5959ft 0kts

Navigation Log

Ident Type
Flight plan parsing failed, navigation log unavailable